createdAt,value
2016-05-12T00:00:50.729Z,0
2016-05-12T00:01:50.341Z,0
2016-05-12T00:02:50.328Z,0
2016-05-12T00:03:50.175Z,0
2016-05-12T00:04:50.302Z,0
2016-05-12T00:05:50.258Z,0
2016-05-12T00:06:50.244Z,0
2016-05-12T00:07:50.060Z,0
2016-05-12T00:08:50.219Z,0
2016-05-12T00:09:50.190Z,0
2016-05-12T00:10:50.163Z,0
2016-05-12T00:11:50.133Z,0
2016-05-12T00:12:50.136Z,0
2016-05-12T00:13:50.093Z,0
2016-05-12T00:14:50.095Z,0
2016-05-12T00:15:50.066Z,0
2016-05-12T00:16:50.053Z,0
2016-05-12T00:17:49.868Z,0
2016-05-12T00:18:49.996Z,0
2016-05-12T00:19:49.968Z,0
2016-05-12T00:20:49.657Z,0
2016-05-12T00:21:49.926Z,0
2016-05-12T00:22:49.772Z,0
2016-05-12T00:23:49.901Z,0
2016-05-12T00:24:49.732Z,0
2016-05-12T00:25:49.875Z,0
2016-05-12T00:26:49.845Z,0
2016-05-12T00:27:49.817Z,0
2016-05-12T00:28:49.803Z,0
2016-05-12T00:29:49.619Z,0
2016-05-12T00:30:49.606Z,4
2016-05-12T00:31:49.750Z,4
2016-05-12T00:32:49.706Z,4
2016-05-12T00:33:49.692Z,4
2016-05-12T00:34:49.680Z,0
2016-05-12T00:35:49.683Z,0
2016-05-12T00:36:49.482Z,0
2016-05-12T00:37:49.610Z,0
2016-05-12T00:38:49.613Z,4
2016-05-12T00:39:49.413Z,4
2016-05-12T00:40:49.555Z,4
2016-05-12T00:41:49.543Z,0
2016-05-12T00:42:49.357Z,0
2016-05-12T00:43:49.485Z,4
2016-05-12T00:44:49.471Z,4
2016-05-12T00:45:49.443Z,4
2016-05-12T00:46:49.416Z,4
2016-05-12T00:47:49.418Z,0
2016-05-12T00:48:49.405Z,0
2016-05-12T00:49:49.220Z,0
2016-05-12T00:50:49.192Z,0
2016-05-12T00:51:49.319Z,0
2016-05-12T00:52:49.165Z,0
2016-05-12T00:53:49.137Z,0
2016-05-12T00:54:49.109Z,0
2016-05-12T00:55:49.251Z,4
2016-05-12T00:56:49.239Z,4
2016-05-12T00:57:49.054Z,4
2016-05-12T00:58:48.870Z,4
2016-05-12T00:59:49.169Z,4
2016-05-12T01:00:48.999Z,4
2016-05-12T01:01:49.268Z,4
2016-05-12T01:02:49.115Z,4
2016-05-12T01:03:49.086Z,4
2016-05-12T01:04:49.072Z,4
2016-05-12T01:05:49.122Z,0
2016-05-12T01:06:49.047Z,4
2016-05-12T01:07:48.988Z,4
2016-05-12T01:08:48.991Z,4
2016-05-12T01:09:48.977Z,4
2016-05-12T01:10:48.933Z,4
2016-05-12T01:11:48.919Z,4
2016-05-12T01:12:48.891Z,0
2016-05-12T01:13:48.879Z,0
2016-05-12T01:14:48.866Z,0
2016-05-12T01:15:48.838Z,0
2016-05-12T01:16:49.574Z,0
2016-05-12T01:17:48.795Z,0
2016-05-12T01:18:48.782Z,0
2016-05-12T01:19:48.926Z,0
2016-05-12T01:20:48.584Z,0
2016-05-12T01:21:48.713Z,4
2016-05-12T01:22:48.684Z,4
2016-05-12T01:23:48.546Z,4
2016-05-12T01:24:48.502Z,0
2016-05-12T01:25:48.629Z,0
2016-05-12T01:26:48.632Z,4
2016-05-12T01:27:48.634Z,4
2016-05-12T01:28:48.559Z,4
2016-05-12T01:29:48.250Z,4
2016-05-12T01:30:48.378Z,0
2016-05-12T01:31:48.692Z,0
2016-05-12T01:32:48.492Z,0
2016-05-12T01:33:48.322Z,4
2016-05-12T01:34:48.435Z,4
2016-05-12T01:35:48.266Z,4
2016-05-12T01:36:48.269Z,4
2016-05-12T01:37:48.397Z,0
2016-05-12T01:38:48.367Z,0
2016-05-12T01:39:48.339Z,0
2016-05-12T01:40:48.169Z,0
2016-05-12T01:41:48.298Z,0
2016-05-12T01:42:47.972Z,0
2016-05-12T01:43:48.115Z,0
2016-05-12T01:44:48.243Z,0
2016-05-12T01:45:48.215Z,4
2016-05-12T01:46:48.421Z,4
2016-05-12T01:47:48.188Z,4
2016-05-12T01:48:48.019Z,0
2016-05-12T01:49:47.991Z,4
2016-05-12T01:50:47.962Z,4
2016-05-12T01:51:48.090Z,4
2016-05-12T01:52:48.062Z,4
2016-05-12T01:53:48.064Z,0
2016-05-12T01:54:48.035Z,0
2016-05-12T01:55:48.007Z,0
2016-05-12T01:56:47.995Z,0
2016-05-12T01:57:47.997Z,0
2016-05-12T01:58:47.640Z,0
2016-05-12T01:59:47.924Z,0
2016-05-12T02:00:47.911Z,0
2016-05-12T02:01:48.194Z,0
2016-05-12T02:02:47.869Z,0
2016-05-12T02:03:47.685Z,0
2016-05-12T02:04:47.828Z,0
2016-05-12T02:05:47.799Z,0
2016-05-12T02:06:47.786Z,0
2016-05-12T02:07:47.758Z,0
2016-05-12T02:08:47.745Z,0
2016-05-12T02:09:47.716Z,0
2016-05-12T02:10:47.719Z,0
2016-05-12T02:11:47.691Z,0
2016-05-12T02:12:47.646Z,0
2016-05-12T02:13:47.633Z,4
2016-05-12T02:14:47.621Z,4
2016-05-12T02:15:47.623Z,4
2016-05-12T02:16:47.767Z,4
2016-05-12T02:17:47.394Z,0
2016-05-12T02:18:47.537Z,0
2016-05-12T02:19:47.369Z,0
2016-05-12T02:20:47.496Z,0
2016-05-12T02:21:47.327Z,0
2016-05-12T02:22:47.439Z,0
2016-05-12T02:23:47.270Z,0
2016-05-12T02:24:47.413Z,0
2016-05-12T02:25:47.385Z,0
2016-05-12T02:26:47.059Z,4
2016-05-12T02:27:47.343Z,4
2016-05-12T02:28:47.330Z,4
2016-05-12T02:29:47.145Z,0
2016-05-12T02:30:47.132Z,0
2016-05-12T02:31:46.995Z,0
2016-05-12T02:32:47.248Z,0
2016-05-12T02:33:47.234Z,0
2016-05-12T02:34:47.205Z,0
2016-05-12T02:35:47.178Z,0
2016-05-12T02:36:47.180Z,0
2016-05-12T02:37:47.119Z,0
2016-05-12T02:38:47.108Z,0
2016-05-12T02:39:47.094Z,0
2016-05-12T02:40:47.066Z,0
2016-05-12T02:41:46.897Z,0
2016-05-12T02:42:47.039Z,0
2016-05-12T02:43:46.855Z,0
2016-05-12T02:44:46.998Z,0
2016-05-12T02:45:46.797Z,0
2016-05-12T02:46:47.254Z,0
2016-05-12T02:47:46.913Z,0
2016-05-12T02:48:46.899Z,0
2016-05-12T02:49:46.715Z,4
2016-05-12T02:50:46.702Z,4
2016-05-12T02:51:46.814Z,4
2016-05-12T02:52:46.645Z,4
2016-05-12T02:53:46.632Z,4
2016-05-12T02:54:46.634Z,4
2016-05-12T02:55:46.746Z,4
2016-05-12T02:56:46.592Z,4
2016-05-12T02:57:46.689Z,0
2016-05-12T02:58:46.677Z,4
2016-05-12T02:59:46.664Z,8
2016-05-12T03:00:46.651Z,8
2016-05-12T03:01:47.075Z,4
2016-05-12T03:02:46.593Z,4
2016-05-12T03:03:46.580Z,4
2016-05-12T03:04:46.537Z,4
2016-05-12T03:05:46.523Z,8
2016-05-12T03:06:46.511Z,4
2016-05-12T03:07:46.481Z,8
2016-05-12T03:08:46.313Z,8
2016-05-12T03:09:46.300Z,12
2016-05-12T03:10:46.444Z,12
2016-05-12T03:11:46.399Z,12
2016-05-12T03:12:46.370Z,12
2016-05-12T03:13:46.358Z,12
2016-05-12T03:14:46.188Z,16
2016-05-12T03:15:46.175Z,20
2016-05-12T03:16:47.365Z,24
2016-05-12T03:17:46.275Z,24
2016-05-12T03:18:46.090Z,28
2016-05-12T03:19:46.233Z,32
2016-05-12T03:20:46.064Z,36
2016-05-12T03:21:46.191Z,40
2016-05-12T03:22:46.006Z,48
2016-05-12T03:23:46.165Z,52
2016-05-12T03:24:46.121Z,60
2016-05-12T03:25:46.109Z,68
2016-05-12T03:26:46.079Z,72
2016-05-12T03:27:45.910Z,84
2016-05-12T03:28:46.038Z,92
2016-05-12T03:29:46.025Z,100
2016-05-12T03:30:46.012Z,112
2016-05-12T03:31:46.093Z,120
2016-05-12T03:32:45.956Z,132
2016-05-12T03:33:45.926Z,148
2016-05-12T03:34:45.758Z,160
2016-05-12T03:35:45.900Z,172
2016-05-12T03:36:45.872Z,188
2016-05-12T03:37:45.844Z,204
2016-05-12T03:38:45.675Z,224
2016-05-12T03:39:45.647Z,244
2016-05-12T03:40:45.789Z,264
2016-05-12T03:41:45.604Z,288
2016-05-12T03:42:45.591Z,312
2016-05-12T03:43:45.719Z,336
2016-05-12T03:44:45.378Z,364
2016-05-12T03:45:45.365Z,388
2016-05-12T03:46:45.665Z,416
2016-05-12T03:47:45.480Z,448
2016-05-12T03:48:45.467Z,480
2016-05-12T03:49:45.438Z,516
2016-05-12T03:50:45.566Z,548
2016-05-12T03:51:45.397Z,592
2016-05-12T03:52:45.525Z,624
2016-05-12T03:53:45.496Z,656
2016-05-12T03:54:45.483Z,696
2016-05-12T03:55:45.470Z,732
2016-05-12T03:56:45.301Z,768
2016-05-12T03:57:45.429Z,812
2016-05-12T03:58:45.416Z,856
2016-05-12T03:59:45.388Z,920
2016-05-12T04:00:45.359Z,972
2016-05-12T04:01:45.752Z,1012
2016-05-12T04:02:45.317Z,1052
2016-05-12T04:03:45.304Z,1096
2016-05-12T04:04:45.120Z,1156
2016-05-12T04:05:45.092Z,1200
2016-05-12T04:06:45.234Z,1268
2016-05-12T04:07:45.206Z,1528
2016-05-12T04:08:45.020Z,1616
2016-05-12T04:09:45.180Z,1816
2016-05-12T04:10:45.151Z,1868
2016-05-12T04:11:45.139Z,2020
2016-05-12T04:12:45.110Z,2172
2016-05-12T04:13:44.941Z,2060
2016-05-12T04:14:44.911Z,1872
2016-05-12T04:15:45.039Z,1868
2016-05-12T04:16:45.183Z,1964
2016-05-12T04:17:44.998Z,2084
2016-05-12T04:18:44.970Z,2312
2016-05-12T04:19:44.800Z,2456
2016-05-12T04:20:44.944Z,2352
2016-05-12T04:21:44.759Z,2696
2016-05-12T04:22:44.887Z,3348
2016-05-12T04:23:44.873Z,3388
2016-05-12T04:24:44.860Z,3116
2016-05-12T04:25:44.832Z,2992
2016-05-12T04:26:44.819Z,3040
2016-05-12T04:27:44.790Z,2740
2016-05-12T04:28:44.793Z,2592
2016-05-12T04:29:44.593Z,2724
2016-05-12T04:30:44.721Z,2824
2016-05-12T04:31:44.661Z,2900
2016-05-12T04:32:44.367Z,2960
2016-05-12T04:33:44.526Z,3140
2016-05-12T04:34:44.653Z,3156
2016-05-12T04:35:44.468Z,3168
2016-05-12T04:36:44.595Z,3248
2016-05-12T04:37:44.428Z,3468
2016-05-12T04:38:44.587Z,4024
2016-05-12T04:39:44.542Z,4324
2016-05-12T04:40:44.544Z,3836
2016-05-12T04:41:44.516Z,3768
2016-05-12T04:42:44.486Z,4652
2016-05-12T04:43:44.459Z,5192
2016-05-12T04:44:44.447Z,4164
2016-05-12T04:45:44.449Z,4168
2016-05-12T04:46:44.420Z,4920
2016-05-12T04:47:44.391Z,5736
2016-05-12T04:48:44.363Z,5976
2016-05-12T04:49:44.177Z,5928
2016-05-12T04:50:44.166Z,4820
2016-05-12T04:51:44.293Z,4904
2016-05-12T04:52:44.280Z,5052
2016-05-12T04:53:44.266Z,4392
2016-05-12T04:54:44.238Z,4560
2016-05-12T04:55:44.069Z,4564
2016-05-12T04:56:44.213Z,4516
2016-05-12T04:57:44.184Z,4492
2016-05-12T04:58:43.999Z,4404
2016-05-12T04:59:44.143Z,4672
2016-05-12T05:00:44.114Z,4800
2016-05-12T05:01:44.413Z,4408
2016-05-12T05:02:44.087Z,4232
2016-05-12T05:03:44.060Z,4208
2016-05-12T05:04:43.890Z,4236
2016-05-12T05:05:43.878Z,4232
2016-05-12T05:06:44.006Z,4240
2016-05-12T05:07:43.976Z,4264
2016-05-12T05:08:43.964Z,4312
2016-05-12T05:09:43.778Z,4360
2016-05-12T05:10:43.766Z,4408
2016-05-12T05:11:49.081Z,4444
2016-05-12T05:12:43.897Z,4460
2016-05-12T05:13:43.867Z,4484
2016-05-12T05:14:43.370Z,4520
2016-05-12T05:15:43.810Z,4540
2016-05-12T05:16:43.703Z,4548
2016-05-12T05:17:43.628Z,4584
2016-05-12T05:18:43.600Z,4608
2016-05-12T05:19:43.586Z,4632
2016-05-12T05:20:43.589Z,4672
2016-05-12T05:21:43.702Z,4696
2016-05-12T05:22:43.688Z,4712
2016-05-12T05:23:43.505Z,4724
2016-05-12T05:24:43.491Z,4764
2016-05-12T05:25:43.619Z,4812
2016-05-12T05:26:43.605Z,4860
2016-05-12T05:27:43.577Z,4884
2016-05-12T05:28:43.564Z,4928
2016-05-12T05:29:43.379Z,4956
2016-05-12T05:30:43.382Z,4976
2016-05-12T05:31:43.713Z,5020
2016-05-12T05:32:43.481Z,5052
2016-05-12T05:33:43.453Z,5072
2016-05-12T05:34:43.284Z,5140
2016-05-12T05:35:43.411Z,5184
2016-05-12T05:36:43.242Z,5216
2016-05-12T05:37:43.213Z,5256
2016-05-12T05:38:43.201Z,5296
2016-05-12T05:39:43.016Z,5320
2016-05-12T05:40:43.159Z,5360
2016-05-12T05:41:43.303Z,5360
2016-05-12T05:42:43.273Z,5364
2016-05-12T05:43:43.260Z,5400
2016-05-12T05:44:43.248Z,5412
2016-05-12T05:45:43.219Z,5428
2016-05-12T05:46:43.222Z,5396
2016-05-12T05:47:42.866Z,5468
2016-05-12T05:48:43.024Z,5512
2016-05-12T05:49:43.152Z,5504
2016-05-12T05:50:42.983Z,5568
2016-05-12T05:51:43.110Z,5636
2016-05-12T05:52:43.082Z,5660
2016-05-12T05:53:43.068Z,5680
2016-05-12T05:54:42.884Z,5692
2016-05-12T05:55:43.028Z,5736
2016-05-12T05:56:42.999Z,5800
2016-05-12T05:57:42.985Z,5872
2016-05-12T05:58:42.957Z,5924
2016-05-12T05:59:42.944Z,5992
2016-05-12T06:00:42.760Z,6008
2016-05-12T06:01:42.965Z,6096
2016-05-12T06:02:42.906Z,6176
2016-05-12T06:03:42.721Z,6252
2016-05-12T06:04:42.849Z,6352
2016-05-12T06:05:42.679Z,6412
2016-05-12T06:06:42.807Z,6484
2016-05-12T06:07:42.794Z,6572
2016-05-12T06:08:42.781Z,6600
2016-05-12T06:09:42.767Z,6644
2016-05-12T06:10:42.740Z,6736
2016-05-12T06:11:42.711Z,6844
2016-05-12T06:12:42.542Z,6952
2016-05-12T06:13:42.685Z,7020
2016-05-12T06:14:42.500Z,7076
2016-05-12T06:15:42.487Z,7208
2016-05-12T06:16:42.600Z,7356
2016-05-12T06:17:42.617Z,7496
2016-05-12T06:18:42.574Z,7612
2016-05-12T06:19:42.561Z,7740
2016-05-12T06:20:42.547Z,7876
2016-05-12T06:21:42.378Z,7988
2016-05-12T06:22:42.522Z,8132
2016-05-12T06:23:42.493Z,8228
2016-05-12T06:24:42.480Z,8392
2016-05-12T06:25:42.296Z,8664
2016-05-12T06:26:42.439Z,8940
2016-05-12T06:27:42.426Z,9228
2016-05-12T06:28:42.257Z,9672
2016-05-12T06:29:42.416Z,10164
2016-05-12T06:30:42.559Z,10572
2016-05-12T06:31:42.199Z,11072
2016-05-12T06:32:42.329Z,11556
2016-05-12T06:33:42.157Z,11900
2016-05-12T06:34:42.286Z,12432
2016-05-12T06:35:42.288Z,13440
2016-05-12T06:36:42.103Z,20480
2016-05-12T06:37:42.232Z,29728
2016-05-12T06:38:42.218Z,39008
2016-05-12T06:39:42.206Z,46880
2016-05-12T06:40:42.177Z,52672
2016-05-12T06:41:42.165Z,54592
2016-05-12T06:42:42.307Z,54208
2016-05-12T06:43:42.154Z,54144
2016-05-12T06:44:42.125Z,56704
2016-05-12T06:45:42.097Z,61504
2016-05-12T06:46:42.350Z,63520
2016-05-12T06:47:41.930Z,60000
2016-05-12T06:48:41.917Z,53376
2016-05-12T06:49:41.888Z,47264
2016-05-12T06:50:41.918Z,46816
2016-05-12T06:51:42.121Z,52288
2016-05-12T06:52:42.134Z,59520
2016-05-12T06:53:42.149Z,62816
2016-05-12T06:54:42.195Z,57888
2016-05-12T06:55:42.026Z,50976
2016-05-12T06:56:42.045Z,47456
2016-05-12T06:57:42.218Z,49056
2016-05-12T06:58:42.189Z,52960
2016-05-12T06:59:42.207Z,54848
2016-05-12T07:00:42.199Z,53088
2016-05-12T07:01:42.130Z,49600
2016-05-12T07:02:42.200Z,49760
2016-05-12T07:03:42.177Z,54272
2016-05-12T07:04:42.028Z,58272
2016-05-12T07:05:42.174Z,58144
2016-05-12T07:06:42.148Z,55136
2016-05-12T07:07:41.996Z,51136
2016-05-12T07:08:42.141Z,47232
2016-05-12T07:09:42.130Z,46944
2016-05-12T07:10:42.134Z,48320
2016-05-12T07:11:42.122Z,50240
2016-05-12T07:12:42.109Z,50560
2016-05-12T07:13:42.096Z,48736
2016-05-12T07:14:42.100Z,45408
2016-05-12T07:15:42.088Z,41312
2016-05-12T07:16:42.638Z,41024
2016-05-12T07:17:42.078Z,47072
2016-05-12T07:18:41.909Z,55744
2016-05-12T07:19:42.037Z,62176
2016-05-12T07:20:42.040Z,62336
2016-05-12T07:21:41.886Z,59968
2016-05-12T07:22:42.030Z,57376
2016-05-12T07:23:42.017Z,54400
2016-05-12T07:24:41.848Z,53568
2016-05-12T07:25:42.007Z,53760
2016-05-12T07:26:41.838Z,54464
2016-05-12T07:27:41.824Z,56480
2016-05-12T07:28:41.969Z,57888
2016-05-12T07:29:41.971Z,60000
2016-05-12T07:30:41.958Z,63168
2016-05-12T07:31:42.227Z,65216
2016-05-12T07:32:42.166Z,65792
2016-05-12T07:33:41.935Z,66112
2016-05-12T07:34:41.781Z,69472
2016-05-12T07:35:41.908Z,72032
2016-05-12T07:36:41.911Z,70720
2016-05-12T07:37:41.914Z,64032
2016-05-12T07:38:41.901Z,58560
2016-05-12T07:39:41.888Z,58432
2016-05-12T07:40:41.735Z,62720
2016-05-12T07:41:41.879Z,68160
2016-05-12T07:42:41.865Z,68768
2016-05-12T07:43:41.899Z,62752
2016-05-12T07:44:41.854Z,56928
2016-05-12T07:45:41.858Z,55968
2016-05-12T07:46:41.704Z,60512
2016-05-12T07:47:41.848Z,64640
2016-05-12T07:48:41.678Z,60544
2016-05-12T07:49:41.821Z,52352
2016-05-12T07:50:41.668Z,47072
2016-05-12T07:51:41.811Z,47648
2016-05-12T07:52:41.799Z,52160
2016-05-12T07:53:41.817Z,54592
2016-05-12T07:54:41.789Z,54624
2016-05-12T07:55:41.791Z,53600
2016-05-12T07:56:41.622Z,53952
2016-05-12T07:57:41.781Z,56768
2016-05-12T07:58:41.767Z,59232
2016-05-12T07:59:41.770Z,62272
2016-05-12T08:00:41.757Z,66912
2016-05-12T08:01:41.947Z,70560
2016-05-12T08:02:41.747Z,71552
2016-05-12T08:03:41.766Z,69824
2016-05-12T08:04:41.736Z,67200
2016-05-12T08:05:41.739Z,64800
2016-05-12T08:06:41.571Z,66656
2016-05-12T08:07:41.714Z,72768
2016-05-12T08:08:41.716Z,78272
2016-05-12T08:09:41.703Z,79584
2016-05-12T08:10:41.707Z,78656
2016-05-12T08:11:41.710Z,79072
2016-05-12T08:12:41.696Z,79424
2016-05-12T08:13:41.683Z,76192
2016-05-12T08:14:41.373Z,71840
2016-05-12T08:15:41.532Z,68448
2016-05-12T08:16:41.379Z,67488
2016-05-12T08:17:41.662Z,68544
2016-05-12T08:18:41.666Z,71360
2016-05-12T08:19:41.652Z,77024
2016-05-12T08:20:41.498Z,80160
2016-05-12T08:21:41.658Z,79808
2016-05-12T08:22:41.489Z,79552
2016-05-12T08:23:41.631Z,80192
2016-05-12T08:24:41.478Z,82912
2016-05-12T08:25:41.465Z,86400
2016-05-12T08:26:41.452Z,88640
2016-05-12T08:27:41.455Z,88416
2016-05-12T08:28:41.614Z,85632
2016-05-12T08:29:41.616Z,83968
2016-05-12T08:30:41.603Z,81632
2016-05-12T08:31:41.606Z,79200
2016-05-12T08:32:41.437Z,76544
2016-05-12T08:33:41.581Z,72640
2016-05-12T08:34:41.584Z,67200
2016-05-12T08:35:41.414Z,64384
2016-05-12T08:36:41.573Z,67104
2016-05-12T08:37:41.404Z,72736
2016-05-12T08:38:41.407Z,82560
2016-05-12T08:39:41.394Z,91840
2016-05-12T08:40:41.396Z,94432
2016-05-12T08:41:41.383Z,92000
2016-05-12T08:42:41.542Z,84736
2016-05-12T08:43:41.373Z,79648
2016-05-12T08:44:41.532Z,77152
2016-05-12T08:45:41.222Z,77440
2016-05-12T08:46:41.771Z,79424
2016-05-12T08:47:41.524Z,66368
2016-05-12T08:48:41.355Z,29152
2016-05-12T08:49:41.514Z,9732
2016-05-12T08:50:41.485Z,9332
2016-05-12T08:51:41.504Z,9144
2016-05-12T08:52:41.490Z,8896
2016-05-12T08:53:41.478Z,8708
2016-05-12T08:54:41.465Z,8600
2016-05-12T08:55:41.452Z,8464
2016-05-12T08:56:41.471Z,8112
2016-05-12T08:57:41.286Z,7716
2016-05-12T08:58:41.460Z,7464
2016-05-12T08:59:41.432Z,7380
2016-05-12T09:00:41.434Z,7308
2016-05-12T09:01:44.093Z,7112
2016-05-12T09:02:41.393Z,7188
2016-05-12T09:03:41.380Z,7212
2016-05-12T09:04:41.367Z,7136
2016-05-12T09:05:41.369Z,7064
2016-05-12T09:06:41.357Z,7072
2016-05-12T09:07:41.344Z,7020
2016-05-12T09:08:41.330Z,7000
2016-05-12T09:09:41.177Z,6988
2016-05-12T09:10:41.149Z,6980
2016-05-12T09:11:41.308Z,6996
2016-05-12T09:12:41.279Z,7012
2016-05-12T09:13:41.266Z,7088
2016-05-12T09:14:41.253Z,7040
2016-05-12T09:15:41.069Z,6984
2016-05-12T09:16:41.805Z,6844
2016-05-12T09:17:41.074Z,6880
2016-05-12T09:18:41.046Z,6904
2016-05-12T09:19:41.188Z,6916
2016-05-12T09:20:40.879Z,6928
2016-05-12T09:21:41.163Z,6980
2016-05-12T09:22:40.993Z,7052
2016-05-12T09:23:41.137Z,7012
2016-05-12T09:24:41.123Z,7072
2016-05-12T09:25:40.954Z,7168
2016-05-12T09:26:41.114Z,7228
2016-05-12T09:27:41.069Z,7296
2016-05-12T09:28:41.072Z,7196
2016-05-12T09:29:41.044Z,7176
2016-05-12T09:30:41.031Z,7224
2016-05-12T09:31:41.064Z,7224
2016-05-12T09:32:41.020Z,7272
2016-05-12T09:33:40.976Z,7348
2016-05-12T09:34:40.978Z,7440
2016-05-12T09:35:40.810Z,7484
2016-05-12T09:36:40.797Z,7324
2016-05-12T09:37:40.769Z,7264
2016-05-12T09:38:40.771Z,7276
2016-05-12T09:39:40.914Z,7312
2016-05-12T09:40:40.761Z,7428
2016-05-12T09:41:40.716Z,7396
2016-05-12T09:42:40.875Z,7396
2016-05-12T09:43:40.846Z,7508
2016-05-12T09:44:40.849Z,7576
2016-05-12T09:45:40.508Z,7468
2016-05-12T09:46:41.448Z,7596
2016-05-12T09:47:40.499Z,7612
2016-05-12T09:48:40.766Z,7656
2016-05-12T09:49:40.598Z,7724
2016-05-12T09:50:40.585Z,7684
2016-05-12T09:51:40.728Z,7572
2016-05-12T09:52:40.574Z,7484
2016-05-12T09:53:40.561Z,7644
2016-05-12T09:54:40.704Z,7652
2016-05-12T09:55:40.660Z,7480
2016-05-12T09:56:40.663Z,7436
2016-05-12T09:57:40.494Z,7628
2016-05-12T09:58:40.637Z,7792
2016-05-12T09:59:40.608Z,7796
2016-05-12T10:00:40.470Z,7708
2016-05-12T10:01:40.598Z,7772
2016-05-12T10:02:40.569Z,7924
2016-05-12T10:03:40.557Z,8000
2016-05-12T10:04:40.389Z,8104
2016-05-12T10:05:40.531Z,8352
2016-05-12T10:06:40.519Z,7952
2016-05-12T10:07:40.489Z,7820
2016-05-12T10:08:40.492Z,7972
2016-05-12T10:09:40.464Z,8232
2016-05-12T10:10:40.450Z,8820
2016-05-12T10:11:40.282Z,8324
2016-05-12T10:12:40.424Z,7792
2016-05-12T10:13:40.443Z,7688
2016-05-12T10:14:40.243Z,7608
2016-05-12T10:15:40.385Z,7920
2016-05-12T10:16:41.154Z,8200
2016-05-12T10:17:40.360Z,7976
2016-05-12T10:18:40.332Z,7808
2016-05-12T10:19:40.335Z,7848
2016-05-12T10:20:40.306Z,8048
2016-05-12T10:21:40.309Z,8208
2016-05-12T10:22:40.279Z,8588
2016-05-12T10:23:40.252Z,9060
2016-05-12T10:24:40.254Z,9404
2016-05-12T10:25:40.241Z,9112
2016-05-12T10:26:40.228Z,8508
2016-05-12T10:27:40.231Z,8920
2016-05-12T10:28:40.218Z,9944
2016-05-12T10:29:40.033Z,10504
2016-05-12T10:30:40.020Z,9144
2016-05-12T10:31:39.850Z,7856
2016-05-12T10:32:39.838Z,8036
2016-05-12T10:33:39.967Z,7896
2016-05-12T10:34:40.108Z,8176
2016-05-12T10:35:40.096Z,7764
2016-05-12T10:36:39.927Z,8964
2016-05-12T10:37:40.070Z,10440
2016-05-12T10:38:40.042Z,11396
2016-05-12T10:39:39.872Z,10636
2016-05-12T10:40:39.875Z,10724
2016-05-12T10:41:40.018Z,10904
2016-05-12T10:42:39.849Z,9788
2016-05-12T10:43:39.977Z,10468
2016-05-12T10:44:39.808Z,13456
2016-05-12T10:45:39.794Z,11336
2016-05-12T10:46:40.266Z,8680
2016-05-12T10:47:39.910Z,9516
2016-05-12T10:48:39.772Z,9056
2016-05-12T10:49:39.884Z,8964
2016-05-12T10:50:39.870Z,8328
2016-05-12T10:51:39.874Z,7428
2016-05-12T10:52:39.721Z,7820
2016-05-12T10:53:39.848Z,7756
2016-05-12T10:54:39.663Z,7860
2016-05-12T10:55:39.681Z,7852
2016-05-12T10:56:39.809Z,7776
2016-05-12T10:57:39.781Z,8000
2016-05-12T10:58:39.768Z,8128
2016-05-12T10:59:39.754Z,8332
2016-05-12T11:00:39.741Z,8764
2016-05-12T11:01:39.509Z,8900
2016-05-12T11:02:39.716Z,8556
2016-05-12T11:03:39.546Z,8544
2016-05-12T11:04:39.517Z,8732
2016-05-12T11:05:39.505Z,7604
2016-05-12T11:06:39.508Z,8148
2016-05-12T11:07:39.479Z,8728
2016-05-12T11:08:39.623Z,9704
2016-05-12T11:09:39.608Z,11884
2016-05-12T11:10:39.487Z,12808
2016-05-12T11:11:39.584Z,10248
2016-05-12T11:12:39.571Z,8404
2016-05-12T11:13:39.558Z,7088
2016-05-12T11:14:39.529Z,7204
2016-05-12T11:15:39.375Z,7080
2016-05-12T11:16:40.675Z,7280
2016-05-12T11:17:39.490Z,7664
2016-05-12T11:18:39.321Z,8212
2016-05-12T11:19:39.324Z,8172
2016-05-12T11:20:39.310Z,7812
2016-05-12T11:21:39.454Z,7100
2016-05-12T11:22:39.269Z,7200
2016-05-12T11:23:39.396Z,6496
2016-05-12T11:24:39.399Z,6308
2016-05-12T11:25:39.387Z,6740
2016-05-12T11:26:39.390Z,5612
2016-05-12T11:27:39.204Z,6300
2016-05-12T11:28:39.332Z,7092
2016-05-12T11:29:39.163Z,7540
2016-05-12T11:30:39.323Z,7724
2016-05-12T11:31:39.825Z,7532
2016-05-12T11:32:39.264Z,7752
2016-05-12T11:33:39.112Z,8076
2016-05-12T11:34:39.255Z,9336
2016-05-12T11:35:39.241Z,10252
2016-05-12T11:36:39.073Z,7508
2016-05-12T11:37:39.200Z,6284
2016-05-12T11:38:39.203Z,6388
2016-05-12T11:39:39.033Z,7028
2016-05-12T11:40:39.162Z,7556
2016-05-12T11:41:38.992Z,7120
2016-05-12T11:42:39.151Z,7020
2016-05-12T11:43:38.967Z,6996
2016-05-12T11:44:39.110Z,7844
2016-05-12T11:45:39.097Z,8364
2016-05-12T11:46:39.303Z,8084
2016-05-12T11:47:39.055Z,8288
2016-05-12T11:48:39.058Z,7996
2016-05-12T11:49:39.060Z,8388
2016-05-12T11:50:39.033Z,9024
2016-05-12T11:51:39.019Z,9668
2016-05-12T11:52:38.990Z,10844
2016-05-12T11:53:38.821Z,9832
2016-05-12T11:54:38.965Z,8496
2016-05-12T11:55:38.796Z,7360
2016-05-12T11:56:38.939Z,7684
2016-05-12T11:57:38.770Z,8216
2016-05-12T11:58:38.913Z,8752
2016-05-12T11:59:38.884Z,9660
2016-05-12T12:00:38.903Z,8980
2016-05-12T12:01:38.406Z,8616
2016-05-12T12:02:38.846Z,9020
2016-05-12T12:03:38.693Z,10312
2016-05-12T12:04:38.836Z,10904
2016-05-12T12:05:38.838Z,9868
2016-05-12T12:06:38.809Z,7796
2016-05-12T12:07:38.640Z,7096
2016-05-12T12:08:38.767Z,7596
2016-05-12T12:09:38.600Z,8324
2016-05-12T12:10:38.742Z,9724
2016-05-12T12:11:38.729Z,10548
2016-05-12T12:12:38.560Z,9608
2016-05-12T12:13:38.547Z,9536
2016-05-12T12:14:38.533Z,9268
2016-05-12T12:15:38.365Z,9228
2016-05-12T12:16:38.446Z,9760
2016-05-12T12:17:38.496Z,10644
2016-05-12T12:18:38.639Z,9728
2016-05-12T12:19:38.626Z,10172
2016-05-12T12:20:38.441Z,12068
2016-05-12T12:21:38.287Z,13552
2016-05-12T12:22:38.588Z,12076
2016-05-12T12:23:38.308Z,10980
2016-05-12T12:24:38.561Z,10512
2016-05-12T12:25:38.548Z,9720
2016-05-12T12:26:38.551Z,10084
2016-05-12T12:27:38.507Z,9396
2016-05-12T12:28:38.493Z,9080
2016-05-12T12:29:38.481Z,10384
2016-05-12T12:30:38.498Z,11604
2016-05-12T12:31:39.158Z,12176
2016-05-12T12:32:38.458Z,10712
2016-05-12T12:33:38.273Z,8880
2016-05-12T12:34:38.447Z,8292
2016-05-12T12:35:38.403Z,8740
2016-05-12T12:36:38.422Z,9648
2016-05-12T12:37:38.221Z,8900
2016-05-12T12:38:38.381Z,8280
2016-05-12T12:39:38.351Z,8200
2016-05-12T12:40:38.183Z,8512
2016-05-12T12:41:38.326Z,9028
2016-05-12T12:42:38.156Z,10212
2016-05-12T12:43:38.316Z,11460
2016-05-12T12:44:38.286Z,9568
2016-05-12T12:45:38.258Z,7212
2016-05-12T12:46:38.120Z,5784
2016-05-12T12:47:38.247Z,5488
2016-05-12T12:48:38.219Z,6024
2016-05-12T12:49:38.049Z,6252
2016-05-12T12:50:38.210Z,6464
2016-05-12T12:51:38.180Z,6720
2016-05-12T12:52:38.168Z,6940
2016-05-12T12:53:38.171Z,6796
2016-05-12T12:54:37.985Z,6676
2016-05-12T12:55:38.144Z,6964
2016-05-12T12:56:37.991Z,7024
2016-05-12T12:57:37.963Z,7744
2016-05-12T12:58:38.106Z,8200
2016-05-12T12:59:38.109Z,7768
2016-05-12T13:00:38.080Z,7264
2016-05-12T13:01:38.473Z,7272
2016-05-12T13:02:37.882Z,6908
2016-05-12T13:03:38.025Z,6168
2016-05-12T13:04:38.012Z,5604
2016-05-12T13:05:38.000Z,5536
2016-05-12T13:06:37.986Z,6236
2016-05-12T13:07:37.973Z,6684
2016-05-12T13:08:37.992Z,8376
2016-05-12T13:09:37.947Z,10188
2016-05-12T13:10:37.919Z,9620
2016-05-12T13:11:37.922Z,8516
2016-05-12T13:12:37.909Z,7620
2016-05-12T13:13:37.881Z,7064
2016-05-12T13:14:37.743Z,6636
2016-05-12T13:15:37.713Z,6308
2016-05-12T13:16:37.967Z,6272
2016-05-12T13:17:37.828Z,6548
2016-05-12T13:18:37.816Z,6780
2016-05-12T13:19:37.819Z,6840
2016-05-12T13:20:37.821Z,6924
2016-05-12T13:21:37.777Z,6916
2016-05-12T13:22:37.607Z,7012
2016-05-12T13:23:37.751Z,7296
2016-05-12T13:24:37.722Z,7868
2016-05-12T13:25:37.724Z,7532
2016-05-12T13:26:37.712Z,7908
2016-05-12T13:27:37.699Z,9416
2016-05-12T13:28:37.687Z,10604
2016-05-12T13:29:37.657Z,11972
2016-05-12T13:30:37.660Z,11960
2016-05-12T13:31:37.912Z,11264
2016-05-12T13:32:37.463Z,10104
2016-05-12T13:33:37.465Z,8808